sensor_id;sensor_type;location;lat;lon;timestamp;P1;durP1;ratioP1;P2;durP2;ratioP2
21432;SDS011;18592;49.708;10.900;2022-10-16T00:01:12;1.63;;;1.00;;
21432;SDS011;18592;49.708;10.900;2022-10-16T00:03:16;1.63;;;0.98;;
21432;SDS011;18592;49.708;10.900;2022-10-16T00:05:38;1.33;;;0.80;;
21432;SDS011;18592;49.708;10.900;2022-10-16T00:07:55;1.33;;;1.00;;
21432;SDS011;18592;49.708;10.900;2022-10-16T00:10:12;0.98;;;0.88;;
21432;SDS011;18592;49.708;10.900;2022-10-16T00:12:19;4.32;;;0.93;;
21432;SDS011;18592;49.708;10.900;2022-10-16T00:14:35;1.25;;;1.00;;
21432;SDS011;18592;49.708;10.900;2022-10-16T00:16:37;0.90;;;0.80;;
21432;SDS011;18592;49.708;10.900;2022-10-16T00:18:53;1.02;;;0.93;;
21432;SDS011;18592;49.708;10.900;2022-10-16T00:21:11;1.02;;;1.00;;
21432;SDS011;18592;49.708;10.900;2022-10-16T00:23:18;1.75;;;0.80;;
21432;SDS011;18592;49.708;10.900;2022-10-16T00:25:29;1.27;;;1.02;;
21432;SDS011;18592;49.708;10.900;2022-10-16T00:27:36;1.02;;;0.88;;
21432;SDS011;18592;49.708;10.900;2022-10-16T00:29:38;0.70;;;0.70;;
21432;SDS011;18592;49.708;10.900;2022-10-16T00:31:40;0.70;;;0.70;;
21432;SDS011;18592;49.708;10.900;2022-10-16T00:33:51;0.90;;;0.85;;
21432;SDS011;18592;49.708;10.900;2022-10-16T00:35:58;1.10;;;1.00;;
21432;SDS011;18592;49.708;10.900;2022-10-16T00:38:02;1.50;;;1.00;;
21432;SDS011;18592;49.708;10.900;2022-10-16T00:40:05;1.67;;;1.15;;
21432;SDS011;18592;49.708;10.900;2022-10-16T00:42:14;0.88;;;0.80;;
21432;SDS011;18592;49.708;10.900;2022-10-16T00:46:44;1.00;;;0.80;;
21432;SDS011;18592;49.708;10.900;2022-10-16T00:48:48;1.40;;;0.90;;
21432;SDS011;18592;49.708;10.900;2022-10-16T00:50:56;1.10;;;0.68;;
21432;SDS011;18592;49.708;10.900;2022-10-16T00:53:00;1.52;;;0.80;;
21432;SDS011;18592;49.708;10.900;2022-10-16T00:55:09;1.13;;;0.80;;
21432;SDS011;18592;49.708;10.900;2022-10-16T00:57:12;1.23;;;1.10;;
21432;SDS011;18592;49.708;10.900;2022-10-16T00:59:38;2.17;;;0.80;;
21432;SDS011;18592;49.708;10.900;2022-10-16T01:01:41;1.13;;;0.82;;
21432;SDS011;18592;49.708;10.900;2022-10-16T01:03:43;1.38;;;1.10;;
21432;SDS011;18592;49.708;10.900;2022-10-16T01:05:49;1.27;;;0.80;;
21432;SDS011;18592;49.708;10.900;2022-10-16T01:13:06;2.03;;;0.98;;
21432;SDS011;18592;49.708;10.900;2022-10-16T01:15:16;0.77;;;0.77;;
21432;SDS011;18592;49.708;10.900;2022-10-16T01:17:28;1.23;;;0.85;;
21432;SDS011;18592;49.708;10.900;2022-10-16T01:22:05;1.90;;;0.95;;
21432;SDS011;18592;49.708;10.900;2022-10-16T01:29:16;3.45;;;0.90;;
21432;SDS011;18592;49.708;10.900;2022-10-16T01:31:27;2.08;;;1.00;;
21432;SDS011;18592;49.708;10.900;2022-10-16T01:33:57;1.27;;;1.00;;
21432;SDS011;18592;49.708;10.900;2022-10-16T01:36:18;1.45;;;1.02;;
21432;SDS011;18592;49.708;10.900;2022-10-16T01:38:40;1.88;;;1.02;;
21432;SDS011;18592;49.708;10.900;2022-10-16T01:40:47;1.30;;;1.20;;
21432;SDS011;18592;49.708;10.900;2022-10-16T01:43:18;3.88;;;1.40;;
21432;SDS011;18592;49.708;10.900;2022-10-16T01:45:28;1.48;;;1.00;;
21432;SDS011;18592;49.708;10.900;2022-10-16T01:47:32;2.45;;;1.00;;
21432;SDS011;18592;49.708;10.900;2022-10-16T01:49:37;1.48;;;1.00;;
21432;SDS011;18592;49.708;10.900;2022-10-16T01:51:43;2.13;;;1.10;;
21432;SDS011;18592;49.708;10.900;2022-10-16T01:53:57;2.97;;;1.33;;
21432;SDS011;18592;49.708;10.900;2022-10-16T01:56:13;5.15;;;1.35;;
21432;SDS011;18592;49.708;10.900;2022-10-16T01:58:33;1.40;;;1.20;;
21432;SDS011;18592;49.708;10.900;2022-10-16T02:00:53;1.10;;;1.00;;
21432;SDS011;18592;49.708;10.900;2022-10-16T02:02:57;2.53;;;1.10;;
21432;SDS011;18592;49.708;10.900;2022-10-16T02:05:05;2.85;;;1.10;;
21432;SDS011;18592;49.708;10.900;2022-10-16T02:07:14;1.40;;;1.10;;
21432;SDS011;18592;49.708;10.900;2022-10-16T02:09:18;1.65;;;0.90;;
21432;SDS011;18592;49.708;10.900;2022-10-16T02:11:20;1.75;;;1.05;;
21432;SDS011;18592;49.708;10.900;2022-10-16T02:13:26;1.10;;;1.00;;
21432;SDS011;18592;49.708;10.900;2022-10-16T02:15:51;2.10;;;1.20;;
21432;SDS011;18592;49.708;10.900;2022-10-16T02:17:55;2.45;;;0.95;;
21432;SDS011;18592;49.708;10.900;2022-10-16T02:19:56;1.17;;;1.00;;
21432;SDS011;18592;49.708;10.900;2022-10-16T02:22:03;1.45;;;1.00;;
21432;SDS011;18592;49.708;10.900;2022-10-16T02:26:52;1.83;;;1.00;;
21432;SDS011;18592;49.708;10.900;2022-10-16T02:29:04;1.60;;;1.05;;
21432;SDS011;18592;49.708;10.900;2022-10-16T02:31:13;2.55;;;1.20;;
21432;SDS011;18592;49.708;10.900;2022-10-16T02:33:19;2.72;;;0.90;;
21432;SDS011;18592;49.708;10.900;2022-10-16T02:35:23;2.88;;;1.38;;
21432;SDS011;18592;49.708;10.900;2022-10-16T02:37:27;2.17;;;1.00;;
21432;SDS011;18592;49.708;10.900;2022-10-16T02:39:43;2.67;;;1.10;;
21432;SDS011;18592;49.708;10.900;2022-10-16T02:41:47;1.42;;;1.00;;
21432;SDS011;18592;49.708;10.900;2022-10-16T02:43:54;1.30;;;1.02;;
21432;SDS011;18592;49.708;10.900;2022-10-16T02:45:59;1.58;;;1.17;;
21432;SDS011;18592;49.708;10.900;2022-10-16T02:48:02;2.85;;;0.85;;
21432;SDS011;18592;49.708;10.900;2022-10-16T02:50:05;1.52;;;1.10;;
21432;SDS011;18592;49.708;10.900;2022-10-16T02:52:13;1.23;;;1.00;;
21432;SDS011;18592;49.708;10.900;2022-10-16T02:54:17;1.88;;;1.20;;
21432;SDS011;18592;49.708;10.900;2022-10-16T02:56:32;3.78;;;1.17;;
21432;SDS011;18592;49.708;10.900;2022-10-16T02:58:42;2.35;;;1.20;;
21432;SDS011;18592;49.708;10.900;2022-10-16T03:00:58;2.13;;;1.02;;
21432;SDS011;18592;49.708;10.900;2022-10-16T03:03:09;2.17;;;1.20;;
21432;SDS011;18592;49.708;10.900;2022-10-16T03:05:25;1.20;;;1.02;;
21432;SDS011;18592;49.708;10.900;2022-10-16T03:07:26;1.65;;;1.10;;
21432;SDS011;18592;49.708;10.900;2022-10-16T03:09:29;1.52;;;1.20;;
21432;SDS011;18592;49.708;10.900;2022-10-16T03:11:47;1.45;;;1.27;;
21432;SDS011;18592;49.708;10.900;2022-10-16T03:13:53;1.45;;;1.00;;
21432;SDS011;18592;49.708;10.900;2022-10-16T03:15:55;1.30;;;1.10;;
21432;SDS011;18592;49.708;10.900;2022-10-16T03:18:13;3.75;;;1.27;;
21432;SDS011;18592;49.708;10.900;2022-10-16T03:20:31;1.27;;;1.08;;
21432;SDS011;18592;49.708;10.900;2022-10-16T03:22:32;1.60;;;1.15;;
21432;SDS011;18592;49.708;10.900;2022-10-16T03:24:38;1.63;;;1.10;;
21432;SDS011;18592;49.708;10.900;2022-10-16T03:26:48;2.13;;;1.10;;
21432;SDS011;18592;49.708;10.900;2022-10-16T03:28:49;1.40;;;1.30;;
21432;SDS011;18592;49.708;10.900;2022-10-16T03:30:51;1.63;;;1.20;;
21432;SDS011;18592;49.708;10.900;2022-10-16T03:32:54;1.58;;;1.20;;
21432;SDS011;18592;49.708;10.900;2022-10-16T03:34:56;2.10;;;1.45;;
21432;SDS011;18592;49.708;10.900;2022-10-16T03:37:01;2.22;;;1.10;;
21432;SDS011;18592;49.708;10.900;2022-10-16T03:39:04;2.72;;;1.10;;
21432;SDS011;18592;49.708;10.900;2022-10-16T03:41:07;3.28;;;1.30;;
21432;SDS011;18592;49.708;10.900;2022-10-16T03:43:09;2.65;;;1.15;;
21432;SDS011;18592;49.708;10.900;2022-10-16T03:45:12;2.08;;;1.20;;
21432;SDS011;18592;49.708;10.900;2022-10-16T03:47:17;1.80;;;1.30;;
21432;SDS011;18592;49.708;10.900;2022-10-16T03:49:23;2.35;;;1.10;;
21432;SDS011;18592;49.708;10.900;2022-10-16T03:51:24;1.23;;;1.13;;
21432;SDS011;18592;49.708;10.900;2022-10-16T03:53:28;2.25;;;1.50;;
21432;SDS011;18592;49.708;10.900;2022-10-16T03:55:31;1.30;;;1.20;;
21432;SDS011;18592;49.708;10.900;2022-10-16T03:57:33;1.60;;;1.10;;
21432;SDS011;18592;49.708;10.900;2022-10-16T03:59:35;1.20;;;1.10;;
21432;SDS011;18592;49.708;10.900;2022-10-16T04:01:51;2.22;;;1.17;;
21432;SDS011;18592;49.708;10.900;2022-10-16T04:03:53;1.92;;;1.30;;
21432;SDS011;18592;49.708;10.900;2022-10-16T04:05:58;1.40;;;1.15;;
21432;SDS011;18592;49.708;10.900;2022-10-16T04:08:00;1.17;;;1.00;;
21432;SDS011;18592;49.708;10.900;2022-10-16T04:10:02;3.20;;;1.23;;
21432;SDS011;18592;49.708;10.900;2022-10-16T04:12:05;2.80;;;1.42;;
21432;SDS011;18592;49.708;10.900;2022-10-16T04:14:07;1.60;;;1.17;;
21432;SDS011;18592;49.708;10.900;2022-10-16T04:16:09;1.77;;;1.13;;
21432;SDS011;18592;49.708;10.900;2022-10-16T04:18:11;1.60;;;1.08;;
21432;SDS011;18592;49.708;10.900;2022-10-16T04:20:13;1.70;;;1.30;;
21432;SDS011;18592;49.708;10.900;2022-10-16T04:22:15;1.60;;;1.10;;
21432;SDS011;18592;49.708;10.900;2022-10-16T04:24:16;1.63;;;1.20;;
21432;SDS011;18592;49.708;10.900;2022-10-16T04:26:18;2.78;;;1.30;;
21432;SDS011;18592;49.708;10.900;2022-10-16T04:28:21;1.35;;;1.15;;
21432;SDS011;18592;49.708;10.900;2022-10-16T04:30:22;3.22;;;1.40;;
21432;SDS011;18592;49.708;10.900;2022-10-16T04:32:24;1.40;;;1.30;;
21432;SDS011;18592;49.708;10.900;2022-10-16T04:34:35;1.60;;;1.30;;
21432;SDS011;18592;49.708;10.900;2022-10-16T04:36:39;3.95;;;1.10;;
21432;SDS011;18592;49.708;10.900;2022-10-16T04:38:56;1.15;;;1.05;;
21432;SDS011;18592;49.708;10.900;2022-10-16T04:40:58;1.65;;;1.17;;
21432;SDS011;18592;49.708;10.900;2022-10-16T04:43:03;2.10;;;1.10;;
21432;SDS011;18592;49.708;10.900;2022-10-16T04:45:11;3.00;;;1.40;;
21432;SDS011;18592;49.708;10.900;2022-10-16T04:47:18;1.40;;;1.30;;
21432;SDS011;18592;49.708;10.900;2022-10-16T04:49:20;1.23;;;1.13;;
21432;SDS011;18592;49.708;10.900;2022-10-16T04:51:24;1.58;;;1.13;;
21432;SDS011;18592;49.708;10.900;2022-10-16T04:53:27;1.50;;;1.17;;
21432;SDS011;18592;49.708;10.900;2022-10-16T04:55:28;1.17;;;1.08;;
21432;SDS011;18592;49.708;10.900;2022-10-16T04:57:31;1.55;;;1.02;;
21432;SDS011;18592;49.708;10.900;2022-10-16T04:59:34;1.45;;;1.02;;
21432;SDS011;18592;49.708;10.900;2022-10-16T05:01:36;2.20;;;1.10;;
21432;SDS011;18592;49.708;10.900;2022-10-16T05:03:43;2.33;;;1.10;;
21432;SDS011;18592;49.708;10.900;2022-10-16T05:05:46;1.20;;;1.10;;
21432;SDS011;18592;49.708;10.900;2022-10-16T05:07:48;2.28;;;1.00;;
21432;SDS011;18592;49.708;10.900;2022-10-16T05:09:51;2.58;;;1.30;;
21432;SDS011;18592;49.708;10.900;2022-10-16T05:11:53;1.67;;;1.15;;
21432;SDS011;18592;49.708;10.900;2022-10-16T05:13:55;1.35;;;1.25;;
21432;SDS011;18592;49.708;10.900;2022-10-16T05:15:56;1.45;;;0.90;;
21432;SDS011;18592;49.708;10.900;2022-10-16T05:17:59;1.40;;;1.10;;
21432;SDS011;18592;49.708;10.900;2022-10-16T05:20:01;1.27;;;1.00;;
21432;SDS011;18592;49.708;10.900;2022-10-16T05:22:04;2.15;;;1.17;;
21432;SDS011;18592;49.708;10.900;2022-10-16T05:24:06;1.10;;;1.00;;
21432;SDS011;18592;49.708;10.900;2022-10-16T05:26:08;1.40;;;1.10;;
21432;SDS011;18592;49.708;10.900;2022-10-16T05:28:09;2.72;;;1.20;;
21432;SDS011;18592;49.708;10.900;2022-10-16T05:30:19;1.45;;;1.15;;
21432;SDS011;18592;49.708;10.900;2022-10-16T05:32:21;1.55;;;1.17;;
21432;SDS011;18592;49.708;10.900;2022-10-16T05:34:23;2.20;;;1.10;;
21432;SDS011;18592;49.708;10.900;2022-10-16T05:36:25;1.23;;;1.13;;
21432;SDS011;18592;49.708;10.900;2022-10-16T05:38:28;2.33;;;1.23;;
21432;SDS011;18592;49.708;10.900;2022-10-16T05:40:32;1.38;;;1.20;;
21432;SDS011;18592;49.708;10.900;2022-10-16T05:42:38;1.00;;;0.90;;
21432;SDS011;18592;49.708;10.900;2022-10-16T05:44:42;1.55;;;1.23;;
21432;SDS011;18592;49.708;10.900;2022-10-16T05:46:43;2.10;;;1.27;;
21432;SDS011;18592;49.708;10.900;2022-10-16T05:48:48;1.80;;;1.40;;
21432;SDS011;18592;49.708;10.900;2022-10-16T05:50:59;1.77;;;1.35;;
21432;SDS011;18592;49.708;10.900;2022-10-16T05:53:04;2.15;;;0.98;;
21432;SDS011;18592;49.708;10.900;2022-10-16T05:55:10;1.80;;;1.17;;
21432;SDS011;18592;49.708;10.900;2022-10-16T05:57:12;1.75;;;1.27;;
21432;SDS011;18592;49.708;10.900;2022-10-16T05:59:14;2.95;;;1.27;;
21432;SDS011;18592;49.708;10.900;2022-10-16T06:01:16;1.40;;;1.30;;
21432;SDS011;18592;49.708;10.900;2022-10-16T06:03:19;2.65;;;1.35;;
21432;SDS011;18592;49.708;10.900;2022-10-16T06:05:21;1.25;;;0.90;;
21432;SDS011;18592;49.708;10.900;2022-10-16T06:07:23;2.10;;;1.13;;
21432;SDS011;18592;49.708;10.900;2022-10-16T06:09:25;1.42;;;1.20;;
21432;SDS011;18592;49.708;10.900;2022-10-16T06:11:28;1.17;;;1.08;;
21432;SDS011;18592;49.708;10.900;2022-10-16T06:13:32;1.33;;;1.10;;
21432;SDS011;18592;49.708;10.900;2022-10-16T06:15:33;2.15;;;1.20;;
21432;SDS011;18592;49.708;10.900;2022-10-16T06:17:35;1.30;;;1.20;;
21432;SDS011;18592;49.708;10.900;2022-10-16T06:19:37;1.23;;;1.13;;
21432;SDS011;18592;49.708;10.900;2022-10-16T06:21:39;2.13;;;0.90;;
21432;SDS011;18592;49.708;10.900;2022-10-16T06:23:41;1.25;;;1.15;;
21432;SDS011;18592;49.708;10.900;2022-10-16T06:25:43;2.35;;;1.10;;
21432;SDS011;18592;49.708;10.900;2022-10-16T06:27:47;2.58;;;1.50;;
21432;SDS011;18592;49.708;10.900;2022-10-16T06:29:49;1.63;;;1.23;;
21432;SDS011;18592;49.708;10.900;2022-10-16T06:31:51;1.30;;;1.20;;
21432;SDS011;18592;49.708;10.900;2022-10-16T06:33:54;2.88;;;1.33;;
21432;SDS011;18592;49.708;10.900;2022-10-16T06:36:02;1.50;;;1.13;;
21432;SDS011;18592;49.708;10.900;2022-10-16T06:38:08;2.45;;;1.40;;
21432;SDS011;18592;49.708;10.900;2022-10-16T06:40:14;1.95;;;1.17;;
21432;SDS011;18592;49.708;10.900;2022-10-16T06:42:16;1.70;;;1.30;;
21432;SDS011;18592;49.708;10.900;2022-10-16T06:44:28;1.70;;;1.40;;
21432;SDS011;18592;49.708;10.900;2022-10-16T06:46:32;2.78;;;1.30;;
21432;SDS011;18592;49.708;10.900;2022-10-16T06:48:40;1.30;;;1.20;;
21432;SDS011;18592;49.708;10.900;2022-10-16T06:50:43;2.10;;;1.25;;
21432;SDS011;18592;49.708;10.900;2022-10-16T06:52:44;1.45;;;1.27;;
21432;SDS011;18592;49.708;10.900;2022-10-16T06:54:46;2.53;;;1.33;;
21432;SDS011;18592;49.708;10.900;2022-10-16T06:56:48;1.67;;;1.40;;
21432;SDS011;18592;49.708;10.900;2022-10-16T06:58:49;1.38;;;1.20;;
21432;SDS011;18592;49.708;10.900;2022-10-16T07:00:55;1.48;;;1.38;;
21432;SDS011;18592;49.708;10.900;2022-10-16T07:02:58;2.03;;;1.40;;
21432;SDS011;18592;49.708;10.900;2022-10-16T07:05:01;1.60;;;1.20;;
21432;SDS011;18592;49.708;10.900;2022-10-16T07:07:03;1.30;;;1.10;;
21432;SDS011;18592;49.708;10.900;2022-10-16T07:09:12;1.67;;;1.35;;
21432;SDS011;18592;49.708;10.900;2022-10-16T07:11:16;1.88;;;1.27;;
21432;SDS011;18592;49.708;10.900;2022-10-16T07:13:51;1.30;;;1.20;;
21432;SDS011;18592;49.708;10.900;2022-10-16T07:15:56;1.55;;;1.20;;
21432;SDS011;18592;49.708;10.900;2022-10-16T07:18:00;1.85;;;1.38;;
21432;SDS011;18592;49.708;10.900;2022-10-16T07:20:02;1.38;;;1.27;;
21432;SDS011;18592;49.708;10.900;2022-10-16T07:22:05;1.83;;;1.00;;
21432;SDS011;18592;49.708;10.900;2022-10-16T07:24:07;2.97;;;1.38;;
21432;SDS011;18592;49.708;10.900;2022-10-16T07:26:16;1.48;;;1.38;;
21432;SDS011;18592;49.708;10.900;2022-10-16T07:28:17;1.52;;;1.27;;
21432;SDS011;18592;49.708;10.900;2022-10-16T07:30:19;1.40;;;1.30;;
21432;SDS011;18592;49.708;10.900;2022-10-16T07:32:21;1.40;;;1.30;;
21432;SDS011;18592;49.708;10.900;2022-10-16T07:34:22;4.13;;;1.50;;
21432;SDS011;18592;49.708;10.900;2022-10-16T07:36:24;3.08;;;1.40;;
21432;SDS011;18592;49.708;10.900;2022-10-16T07:38:26;2.72;;;1.25;;
21432;SDS011;18592;49.708;10.900;2022-10-16T07:40:34;3.10;;;1.73;;
21432;SDS011;18592;49.708;10.900;2022-10-16T07:42:38;1.77;;;1.55;;
21432;SDS011;18592;49.708;10.900;2022-10-16T07:44:40;2.10;;;1.67;;
21432;SDS011;18592;49.708;10.900;2022-10-16T07:46:42;3.63;;;1.30;;
21432;SDS011;18592;49.708;10.900;2022-10-16T07:48:43;1.92;;;1.33;;
21432;SDS011;18592;49.708;10.900;2022-10-16T07:50:48;1.58;;;1.35;;
21432;SDS011;18592;49.708;10.900;2022-10-16T07:52:50;1.77;;;1.42;;
21432;SDS011;18592;49.708;10.900;2022-10-16T07:54:52;3.28;;;1.48;;
21432;SDS011;18592;49.708;10.900;2022-10-16T07:56:59;2.05;;;1.40;;
21432;SDS011;18592;49.708;10.900;2022-10-16T07:59:01;1.95;;;1.40;;
21432;SDS011;18592;49.708;10.900;2022-10-16T08:01:05;1.30;;;1.20;;
21432;SDS011;18592;49.708;10.900;2022-10-16T08:03:08;3.35;;;1.50;;
21432;SDS011;18592;49.708;10.900;2022-10-16T08:05:09;1.88;;;1.45;;
21432;SDS011;18592;49.708;10.900;2022-10-16T08:07:14;2.88;;;1.38;;
21432;SDS011;18592;49.708;10.900;2022-10-16T08:09:16;2.00;;;1.40;;
21432;SDS011;18592;49.708;10.900;2022-10-16T08:11:20;1.85;;;1.48;;
21432;SDS011;18592;49.708;10.900;2022-10-16T08:13:22;1.63;;;1.30;;
21432;SDS011;18592;49.708;10.900;2022-10-16T08:15:25;1.50;;;1.40;;
21432;SDS011;18592;49.708;10.900;2022-10-16T08:17:26;1.48;;;1.23;;
21432;SDS011;18592;49.708;10.900;2022-10-16T08:19:29;1.75;;;1.65;;
21432;SDS011;18592;49.708;10.900;2022-10-16T08:21:33;1.73;;;1.30;;
21432;SDS011;18592;49.708;10.900;2022-10-16T08:23:34;3.58;;;1.45;;
21432;SDS011;18592;49.708;10.900;2022-10-16T08:25:36;1.42;;;1.30;;
21432;SDS011;18592;49.708;10.900;2022-10-16T08:27:40;1.48;;;1.20;;
21432;SDS011;18592;49.708;10.900;2022-10-16T08:29:42;2.95;;;1.25;;
21432;SDS011;18592;49.708;10.900;2022-10-16T08:31:43;1.50;;;1.40;;
21432;SDS011;18592;49.708;10.900;2022-10-16T08:33:47;1.27;;;1.17;;
21432;SDS011;18592;49.708;10.900;2022-10-16T08:35:52;2.05;;;1.13;;
21432;SDS011;18592;49.708;10.900;2022-10-16T08:37:55;1.63;;;1.23;;
21432;SDS011;18592;49.708;10.900;2022-10-16T08:39:56;2.70;;;1.58;;
21432;SDS011;18592;49.708;10.900;2022-10-16T08:44:24;1.52;;;1.40;;
21432;SDS011;18592;49.708;10.900;2022-10-16T08:49:10;2.13;;;1.27;;
21432;SDS011;18592;49.708;10.900;2022-10-16T08:51:24;1.50;;;1.33;;
21432;SDS011;18592;49.708;10.900;2022-10-16T08:53:33;1.65;;;1.40;;
21432;SDS011;18592;49.708;10.900;2022-10-16T08:55:46;1.40;;;1.05;;
21432;SDS011;18592;49.708;10.900;2022-10-16T08:57:54;1.20;;;1.10;;
21432;SDS011;18592;49.708;10.900;2022-10-16T08:59:57;1.40;;;1.15;;
21432;SDS011;18592;49.708;10.900;2022-10-16T09:13:41;4.20;;;1.45;;
21432;SDS011;18592;49.708;10.900;2022-10-16T09:18:21;2.72;;;1.30;;
21432;SDS011;18592;49.708;10.900;2022-10-16T09:20:39;2.78;;;1.58;;
21432;SDS011;18592;49.708;10.900;2022-10-16T09:22:48;1.58;;;1.33;;
21432;SDS011;18592;49.708;10.900;2022-10-16T09:24:55;1.70;;;1.30;;
21432;SDS011;18592;49.708;10.900;2022-10-16T09:27:02;2.05;;;1.60;;
21432;SDS011;18592;49.708;10.900;2022-10-16T09:29:16;1.60;;;1.40;;
21432;SDS011;18592;49.708;10.900;2022-10-16T09:31:22;1.40;;;1.30;;
21432;SDS011;18592;49.708;10.900;2022-10-16T09:33:28;1.65;;;1.20;;
21432;SDS011;18592;49.708;10.900;2022-10-16T09:35:38;1.67;;;1.30;;
21432;SDS011;18592;49.708;10.900;2022-10-16T09:37:42;2.00;;;1.58;;
21432;SDS011;18592;49.708;10.900;2022-10-16T09:39:50;1.45;;;1.30;;
21432;SDS011;18592;49.708;10.900;2022-10-16T09:41:53;1.90;;;1.50;;
21432;SDS011;18592;49.708;10.900;2022-10-16T09:43:58;2.45;;;1.48;;
21432;SDS011;18592;49.708;10.900;2022-10-16T09:46:04;3.58;;;1.40;;
21432;SDS011;18592;49.708;10.900;2022-10-16T09:48:12;2.92;;;1.20;;
21432;SDS011;18592;49.708;10.900;2022-10-16T09:50:22;1.85;;;1.50;;
21432;SDS011;18592;49.708;10.900;2022-10-16T09:52:31;3.08;;;1.35;;
21432;SDS011;18592;49.708;10.900;2022-10-16T09:54:33;2.00;;;1.40;;
21432;SDS011;18592;49.708;10.900;2022-10-16T09:56:36;2.35;;;1.30;;
21432;SDS011;18592;49.708;10.900;2022-10-16T09:58:43;4.03;;;1.50;;
21432;SDS011;18592;49.708;10.900;2022-10-16T10:00:55;1.23;;;1.08;;
21432;SDS011;18592;49.708;10.900;2022-10-16T10:02:56;2.20;;;1.25;;
21432;SDS011;18592;49.708;10.900;2022-10-16T10:04:59;1.42;;;1.30;;
21432;SDS011;18592;49.708;10.900;2022-10-16T10:07:01;2.97;;;1.33;;
21432;SDS011;18592;49.708;10.900;2022-10-16T10:09:05;2.25;;;1.40;;
21432;SDS011;18592;49.708;10.900;2022-10-16T10:11:41;2.28;;;1.42;;
21432;SDS011;18592;49.708;10.900;2022-10-16T10:13:44;3.22;;;1.45;;
21432;SDS011;18592;49.708;10.900;2022-10-16T10:15:46;2.75;;;1.67;;
21432;SDS011;18592;49.708;10.900;2022-10-16T10:17:49;2.55;;;1.73;;
21432;SDS011;18592;49.708;10.900;2022-10-16T10:19:58;2.38;;;1.70;;
21432;SDS011;18592;49.708;10.900;2022-10-16T10:24:44;6.57;;;2.13;;
21432;SDS011;18592;49.708;10.900;2022-10-16T10:31:40;5.05;;;2.75;;
21432;SDS011;18592;49.708;10.900;2022-10-16T10:41:44;9.55;;;4.03;;
21432;SDS011;18592;49.708;10.900;2022-10-16T10:44:05;8.18;;;4.45;;
21432;SDS011;18592;49.708;10.900;2022-10-16T10:47:01;10.25;;;4.45;;
21432;SDS011;18592;49.708;10.900;2022-10-16T10:53:29;10.23;;;4.70;;
21432;SDS011;18592;49.708;10.900;2022-10-16T11:03:04;7.05;;;3.20;;
21432;SDS011;18592;49.708;10.900;2022-10-16T11:07:37;4.80;;;3.00;;
21432;SDS011;18592;49.708;10.900;2022-10-16T11:09:53;5.63;;;2.80;;
21432;SDS011;18592;49.708;10.900;2022-10-16T11:12:01;4.00;;;2.80;;
21432;SDS011;18592;49.708;10.900;2022-10-16T11:14:20;4.15;;;2.70;;
21432;SDS011;18592;49.708;10.900;2022-10-16T11:16:28;4.93;;;2.28;;
21432;SDS011;18592;49.708;10.900;2022-10-16T11:18:45;3.95;;;2.20;;
21432;SDS011;18592;49.708;10.900;2022-10-16T11:20:54;3.80;;;2.10;;
21432;SDS011;18592;49.708;10.900;2022-10-16T11:25:31;3.53;;;2.00;;
21432;SDS011;18592;49.708;10.900;2022-10-16T11:27:36;3.40;;;2.17;;
21432;SDS011;18592;49.708;10.900;2022-10-16T11:29:45;4.68;;;2.25;;
21432;SDS011;18592;49.708;10.900;2022-10-16T11:31:59;2.67;;;1.90;;
21432;SDS011;18592;49.708;10.900;2022-10-16T11:34:21;3.25;;;2.05;;
21432;SDS011;18592;49.708;10.900;2022-10-16T11:36:39;3.65;;;1.85;;
21432;SDS011;18592;49.708;10.900;2022-10-16T11:43:38;2.83;;;1.88;;
21432;SDS011;18592;49.708;10.900;2022-10-16T11:45:57;1.83;;;1.45;;
21432;SDS011;18592;49.708;10.900;2022-10-16T11:52:55;2.22;;;1.50;;
21432;SDS011;18592;49.708;10.900;2022-10-16T11:57:17;2.55;;;1.83;;
21432;SDS011;18592;49.708;10.900;2022-10-16T11:59:30;2.42;;;1.60;;
21432;SDS011;18592;49.708;10.900;2022-10-16T12:01:44;2.40;;;1.50;;
21432;SDS011;18592;49.708;10.900;2022-10-16T12:08:13;1.80;;;1.70;;
21432;SDS011;18592;49.708;10.900;2022-10-16T12:10:18;3.58;;;1.90;;
21432;SDS011;18592;49.708;10.900;2022-10-16T12:12:37;2.33;;;1.83;;
21432;SDS011;18592;49.708;10.900;2022-10-16T12:14:40;2.67;;;2.20;;
21432;SDS011;18592;49.708;10.900;2022-10-16T12:17:04;3.95;;;2.20;;
21432;SDS011;18592;49.708;10.900;2022-10-16T12:19:27;2.92;;;2.20;;
21432;SDS011;18592;49.708;10.900;2022-10-16T12:21:31;2.22;;;2.03;;
21432;SDS011;18592;49.708;10.900;2022-10-16T12:23:36;2.22;;;1.77;;
21432;SDS011;18592;49.708;10.900;2022-10-16T12:25:40;1.80;;;1.50;;
21432;SDS011;18592;49.708;10.900;2022-10-16T12:27:53;2.42;;;1.67;;
21432;SDS011;18592;49.708;10.900;2022-10-16T12:30:01;2.22;;;1.77;;
21432;SDS011;18592;49.708;10.900;2022-10-16T12:32:22;2.58;;;1.63;;
21432;SDS011;18592;49.708;10.900;2022-10-16T12:34:46;2.45;;;1.60;;
21432;SDS011;18592;49.708;10.900;2022-10-16T12:36:49;2.42;;;1.95;;
21432;SDS011;18592;49.708;10.900;2022-10-16T12:38:51;2.00;;;1.67;;
21432;SDS011;18592;49.708;10.900;2022-10-16T12:40:55;3.25;;;2.08;;
21432;SDS011;18592;49.708;10.900;2022-10-16T12:43:10;2.90;;;1.52;;
21432;SDS011;18592;49.708;10.900;2022-10-16T12:45:33;1.88;;;1.70;;
21432;SDS011;18592;49.708;10.900;2022-10-16T12:47:47;1.48;;;1.38;;
21432;SDS011;18592;49.708;10.900;2022-10-16T12:49:52;2.80;;;1.60;;
21432;SDS011;18592;49.708;10.900;2022-10-16T12:51:55;2.53;;;1.52;;
21432;SDS011;18592;49.708;10.900;2022-10-16T12:54:01;2.10;;;1.50;;
21432;SDS011;18592;49.708;10.900;2022-10-16T13:05:59;1.30;;;1.20;;
21432;SDS011;18592;49.708;10.900;2022-10-16T13:10:25;1.60;;;1.50;;
21432;SDS011;18592;49.708;10.900;2022-10-16T13:17:42;1.48;;;1.20;;
21432;SDS011;18592;49.708;10.900;2022-10-16T13:24:51;1.30;;;1.20;;
21432;SDS011;18592;49.708;10.900;2022-10-16T13:29:16;1.67;;;1.23;;
21432;SDS011;18592;49.708;10.900;2022-10-16T13:31:19;1.30;;;1.20;;
21432;SDS011;18592;49.708;10.900;2022-10-16T13:35:31;1.63;;;1.33;;
21432;SDS011;18592;49.708;10.900;2022-10-16T13:37:36;1.77;;;1.20;;
21432;SDS011;18592;49.708;10.900;2022-10-16T13:39:37;1.42;;;1.13;;
21432;SDS011;18592;49.708;10.900;2022-10-16T13:41:39;1.83;;;1.30;;
21432;SDS011;18592;49.708;10.900;2022-10-16T13:43:43;1.83;;;1.27;;
21432;SDS011;18592;49.708;10.900;2022-10-16T13:48:01;1.17;;;1.02;;
21432;SDS011;18592;49.708;10.900;2022-10-16T13:50:05;1.80;;;1.27;;
21432;SDS011;18592;49.708;10.900;2022-10-16T13:52:19;1.42;;;1.33;;
21432;SDS011;18592;49.708;10.900;2022-10-16T13:54:22;1.33;;;1.23;;
21432;SDS011;18592;49.708;10.900;2022-10-16T13:56:26;1.75;;;1.10;;
21432;SDS011;18592;49.708;10.900;2022-10-16T13:58:30;2.42;;;1.60;;
21432;SDS011;18592;49.708;10.900;2022-10-16T14:00:31;1.60;;;1.50;;
21432;SDS011;18592;49.708;10.900;2022-10-16T14:02:34;3.50;;;1.63;;
21432;SDS011;18592;49.708;10.900;2022-10-16T14:04:39;2.20;;;1.20;;
21432;SDS011;18592;49.708;10.900;2022-10-16T14:06:42;1.65;;;1.50;;
21432;SDS011;18592;49.708;10.900;2022-10-16T14:08:48;1.40;;;1.30;;
21432;SDS011;18592;49.708;10.900;2022-10-16T14:10:53;2.33;;;1.25;;
21432;SDS011;18592;49.708;10.900;2022-10-16T14:13:00;1.73;;;1.02;;
21432;SDS011;18592;49.708;10.900;2022-10-16T14:15:15;1.30;;;1.20;;
21432;SDS011;18592;49.708;10.900;2022-10-16T14:17:20;1.23;;;1.13;;
21432;SDS011;18592;49.708;10.900;2022-10-16T14:19:26;1.50;;;1.40;;
21432;SDS011;18592;49.708;10.900;2022-10-16T14:21:30;1.40;;;1.10;;
21432;SDS011;18592;49.708;10.900;2022-10-16T14:25:40;1.88;;;1.30;;
21432;SDS011;18592;49.708;10.900;2022-10-16T14:27:41;1.30;;;1.20;;